createdAt,value
2019-05-18T00:01:33.716Z,9.68
2019-05-18T00:04:05.009Z,8.93
2019-05-18T00:06:38.466Z,8.28
2019-05-18T00:09:10.285Z,7.60
2019-05-18T00:11:41.547Z,7.58
2019-05-18T00:14:13.296Z,7.85
2019-05-18T00:16:46.318Z,7.80
2019-05-18T00:19:17.381Z,7.08
2019-05-18T00:21:49.176Z,5.80
2019-05-18T00:24:20.930Z,6.70
2019-05-18T00:26:52.486Z,6.87
2019-05-18T00:29:26.391Z,6.42
2019-05-18T00:31:57.944Z,6.45
2019-05-18T00:34:29.090Z,6.42
2019-05-18T00:37:00.338Z,5.97
2019-05-18T00:39:31.994Z,6.33
2019-05-18T00:42:03.443Z,5.42
2019-05-18T00:44:34.873Z,6.05
2019-05-18T00:47:06.200Z,7.87
2019-05-18T00:49:37.522Z,9.13
2019-05-18T00:52:09.137Z,9.73
2019-05-18T00:54:40.577Z,9.60
2019-05-18T00:57:13.703Z,7.03
2019-05-18T00:59:45.044Z,7.20
2019-05-18T01:02:17.298Z,6.17
2019-05-18T01:04:50.231Z,6.08
2019-05-18T01:07:21.512Z,5.25
2019-05-18T01:09:52.741Z,5.50
2019-05-18T01:12:24.938Z,5.55
2019-05-18T01:14:56.180Z,6.47
2019-05-18T01:17:27.633Z,7.40
2019-05-18T01:19:59.186Z,6.10
2019-05-18T01:22:30.535Z,5.53
2019-05-18T01:25:01.880Z,5.05
2019-05-18T01:27:34.443Z,5.35
2019-05-18T01:30:08.148Z,4.75
2019-05-18T01:32:40.403Z,5.62
2019-05-18T01:35:11.972Z,5.75
2019-05-18T01:37:44.851Z,6.83
2019-05-18T01:40:16.421Z,6.60
2019-05-18T01:42:48.175Z,5.28
2019-05-18T01:45:19.919Z,5.30
2019-05-18T01:47:51.491Z,7.08
2019-05-18T01:50:23.562Z,6.47
2019-05-18T01:52:55.314Z,5.90
2019-05-18T01:55:26.676Z,6.55
2019-05-18T01:57:59.887Z,5.92
2019-05-18T02:00:32.633Z,6.28
2019-05-18T02:03:04.059Z,6.80
2019-05-18T02:05:35.622Z,6.45
2019-05-18T02:08:06.877Z,5.00
2019-05-18T02:10:38.470Z,5.08
2019-05-18T02:13:10.087Z,4.25
2019-05-18T02:15:41.639Z,4.50
2019-05-18T02:18:28.012Z,5.28
2019-05-18T02:20:46.183Z,4.65
2019-05-18T02:23:20.145Z,5.05
2019-05-18T02:25:53.634Z,5.00
2019-05-18T02:28:25.013Z,4.42
2019-05-18T02:30:58.571Z,5.00
2019-05-18T02:33:29.768Z,4.50
2019-05-18T02:36:01.193Z,4.83
2019-05-18T02:38:33.009Z,4.95
2019-05-18T02:41:06.523Z,5.20
2019-05-18T02:43:38.020Z,5.25
2019-05-18T02:46:09.792Z,5.65
2019-05-18T02:48:49.530Z,5.08
2019-05-18T02:51:15.051Z,6.00
2019-05-18T02:53:46.810Z,6.55
2019-05-18T02:56:18.264Z,5.80
2019-05-18T02:58:49.677Z,6.30
2019-05-18T03:01:21.365Z,5.25
2019-05-18T03:03:53.005Z,6.35
2019-05-18T03:06:24.165Z,5.55
2019-05-18T03:08:57.952Z,5.65
2019-05-18T03:11:29.630Z,5.53
2019-05-18T03:14:01.849Z,5.92
2019-05-18T03:16:33.643Z,4.95
2019-05-18T03:19:08.777Z,4.42
2019-05-18T03:21:37.969Z,5.00
2019-05-18T03:24:09.740Z,4.60
2019-05-18T03:26:41.092Z,3.90
2019-05-18T03:29:12.950Z,4.22
2019-05-18T03:31:44.902Z,4.30
2019-05-18T03:34:16.624Z,3.90
2019-05-18T03:36:48.010Z,4.60
2019-05-18T03:39:19.563Z,4.40
2019-05-18T03:41:52.340Z,4.25
2019-05-18T03:44:23.730Z,4.10
2019-05-18T03:46:55.111Z,4.35
2019-05-18T03:49:27.763Z,4.40
2019-05-18T03:51:59.280Z,4.45
2019-05-18T03:54:31.715Z,3.92
2019-05-18T03:57:03.321Z,4.20
2019-05-18T03:59:34.630Z,3.83
2019-05-18T04:02:05.814Z,4.65
2019-05-18T04:04:37.042Z,4.67
2019-05-18T04:07:08.401Z,5.25
2019-05-18T04:09:42.275Z,4.47
2019-05-18T04:12:14.919Z,5.33
2019-05-18T04:14:46.732Z,5.05
2019-05-18T04:17:18.168Z,5.60
2019-05-18T04:19:49.399Z,5.87
2019-05-18T04:22:20.552Z,4.95
2019-05-18T04:24:51.982Z,6.25
2019-05-18T04:27:23.267Z,4.95
2019-05-18T04:29:55.442Z,5.53
2019-05-18T04:32:26.969Z,4.75
2019-05-18T04:34:58.334Z,5.30
2019-05-18T04:37:29.671Z,5.35
2019-05-18T04:40:02.054Z,5.90
2019-05-18T04:42:34.402Z,5.62
2019-05-18T04:45:07.520Z,5.03
2019-05-18T04:47:39.990Z,5.30
2019-05-18T04:50:11.544Z,5.83
2019-05-18T04:52:44.454Z,6.75
2019-05-18T04:55:17.910Z,6.00
2019-05-18T04:57:49.565Z,5.47
2019-05-18T05:00:20.940Z,5.37
2019-05-18T05:02:52.265Z,5.78
2019-05-18T05:05:23.517Z,5.62
2019-05-18T05:07:54.749Z,5.33
2019-05-18T05:10:26.217Z,5.30
2019-05-18T05:12:57.452Z,6.55
2019-05-18T05:15:30.243Z,5.42
2019-05-18T05:18:01.439Z,5.30
2019-05-18T05:20:33.245Z,5.15
2019-05-18T05:23:04.921Z,5.30
2019-05-18T05:25:39.974Z,5.30
2019-05-18T05:30:46.317Z,5.33
2019-05-18T05:33:17.658Z,5.67
2019-05-18T05:35:50.413Z,5.08
2019-05-18T05:38:21.740Z,5.00
2019-05-18T05:40:53.152Z,4.62
2019-05-18T05:43:24.448Z,4.75
2019-05-18T05:45:55.845Z,5.62
2019-05-18T05:48:27.222Z,5.78
2019-05-18T05:51:00.081Z,5.42
2019-05-18T05:53:31.324Z,5.97
2019-05-18T05:56:02.581Z,6.15
2019-05-18T05:58:34.279Z,6.00
2019-05-18T06:01:05.708Z,6.28
2019-05-18T06:03:37.133Z,7.40
2019-05-18T06:06:09.532Z,5.87
2019-05-18T06:08:40.837Z,6.80
2019-05-18T06:11:12.138Z,7.12
2019-05-18T06:13:44.653Z,6.92
2019-05-18T06:16:16.418Z,6.67
2019-05-18T06:18:47.753Z,6.60
2019-05-18T06:21:19.055Z,5.87
2019-05-18T06:23:50.399Z,6.87
2019-05-18T06:26:24.214Z,5.78
2019-05-18T06:28:54.834Z,5.80
2019-05-18T06:31:26.237Z,5.03
2019-05-18T06:33:57.575Z,5.17
2019-05-18T06:36:28.875Z,5.42
2019-05-18T06:39:01.208Z,5.03
2019-05-18T06:41:37.165Z,4.28
2019-05-18T06:44:08.653Z,4.97
2019-05-18T06:46:41.471Z,4.70
2019-05-18T06:49:12.842Z,5.05
2019-05-18T06:51:45.174Z,4.90
2019-05-18T06:54:16.415Z,5.40
2019-05-18T06:56:47.758Z,6.95
2019-05-18T06:59:19.058Z,9.85
2019-05-18T07:01:53.895Z,11.45
2019-05-18T07:04:26.776Z,8.05
2019-05-18T07:06:58.329Z,5.47
2019-05-18T07:09:29.624Z,6.75
2019-05-18T07:12:04.868Z,7.22
2019-05-18T07:14:36.322Z,4.97
2019-05-18T07:17:07.838Z,5.50
2019-05-18T07:19:40.447Z,5.28
2019-05-18T07:22:11.865Z,4.95
2019-05-18T07:24:43.251Z,5.53
2019-05-18T07:27:14.557Z,5.10
2019-05-18T07:29:45.772Z,5.00
2019-05-18T07:32:18.980Z,5.47
2019-05-18T07:34:50.431Z,5.28
2019-05-18T07:37:21.722Z,5.20
2019-05-18T07:39:54.857Z,4.75
2019-05-18T07:42:28.121Z,5.00
2019-05-18T07:45:07.013Z,4.60
2019-05-18T07:47:38.382Z,5.67
2019-05-18T07:50:10.584Z,5.08
2019-05-18T07:52:41.981Z,5.00
2019-05-18T07:55:13.634Z,4.67
2019-05-18T07:58:01.342Z,4.60
2019-05-18T08:00:46.402Z,5.45
2019-05-18T08:03:18.827Z,4.42
2019-05-18T08:05:50.129Z,5.55
2019-05-18T08:08:24.613Z,4.87
2019-05-18T08:10:57.187Z,5.22
2019-05-18T08:13:28.949Z,4.65
2019-05-18T08:16:00.336Z,5.65
2019-05-18T08:18:32.594Z,4.60
2019-05-18T08:21:03.934Z,5.05
2019-05-18T08:23:35.266Z,6.00
2019-05-18T08:26:06.557Z,4.58
2019-05-18T08:28:38.076Z,5.62
2019-05-18T08:31:09.457Z,5.53
2019-05-18T08:33:42.452Z,5.58
2019-05-18T08:36:17.655Z,5.58
2019-05-18T08:38:49.002Z,5.53
2019-05-18T08:41:20.281Z,4.95
2019-05-18T08:43:52.794Z,4.53
2019-05-18T08:46:24.585Z,5.80
2019-05-18T08:48:57.807Z,4.72
2019-05-18T08:51:29.392Z,4.60
2019-05-18T08:54:00.983Z,5.10
2019-05-18T08:56:32.856Z,5.80
2019-05-18T08:59:07.011Z,4.90
2019-05-18T09:01:39.636Z,5.50
2019-05-18T09:04:12.504Z,5.33
2019-05-18T09:06:50.479Z,4.42
2019-05-18T09:09:25.773Z,4.80
2019-05-18T09:12:01.031Z,5.17
2019-05-18T09:14:36.819Z,5.10
2019-05-18T09:17:08.405Z,4.25
2019-05-18T09:19:40.105Z,5.25
2019-05-18T09:22:23.253Z,5.37
2019-05-18T09:24:55.160Z,4.90
2019-05-18T09:27:32.648Z,4.65
2019-05-18T09:30:07.058Z,6.12
2019-05-18T09:32:42.797Z,4.72
2019-05-18T09:35:18.341Z,6.10
2019-05-18T09:37:52.962Z,4.70
2019-05-18T09:40:25.759Z,5.00
2019-05-18T09:47:21.806Z,6.12
2019-05-18T09:49:53.322Z,5.37
2019-05-18T09:52:43.505Z,5.20
2019-05-18T09:55:00.515Z,5.27
2019-05-18T09:57:34.417Z,4.70
2019-05-18T10:00:10.658Z,6.12
2019-05-18T10:02:42.210Z,6.10
2019-05-18T10:05:13.741Z,5.50
2019-05-18T10:07:45.031Z,5.05
2019-05-18T10:10:16.550Z,5.00
2019-05-18T10:12:47.874Z,5.03
2019-05-18T10:15:19.796Z,5.35
2019-05-18T10:17:51.224Z,5.22
2019-05-18T10:20:22.802Z,5.37
2019-05-18T10:23:11.418Z,4.22
2019-05-18T10:25:27.075Z,4.78
2019-05-18T10:27:58.688Z,4.55
2019-05-18T10:30:30.131Z,5.10
2019-05-18T10:33:01.524Z,4.85
2019-05-18T10:35:33.468Z,5.20
2019-05-18T10:38:04.959Z,5.17
2019-05-18T10:40:36.285Z,5.08
2019-05-18T10:43:07.804Z,4.50
2019-05-18T10:45:38.923Z,4.70
2019-05-18T10:48:10.395Z,5.40
2019-05-18T10:50:42.585Z,4.58
2019-05-18T10:53:27.911Z,5.22
2019-05-18T10:55:50.629Z,5.00
2019-05-18T10:58:21.879Z,4.35
2019-05-18T11:00:53.046Z,5.22
2019-05-18T11:03:24.574Z,5.10
2019-05-18T11:05:55.766Z,4.78
2019-05-18T11:08:27.083Z,4.85
2019-05-18T11:10:58.405Z,4.87
2019-05-18T11:13:29.905Z,5.40
2019-05-18T11:16:02.053Z,4.80
2019-05-18T11:18:33.537Z,5.20
2019-05-18T11:21:04.725Z,4.92
2019-05-18T11:23:43.568Z,5.12
2019-05-18T11:26:09.198Z,5.22
2019-05-18T11:28:40.769Z,4.60
2019-05-18T11:31:13.658Z,4.95
2019-05-18T11:33:44.995Z,5.22
2019-05-18T11:36:17.499Z,4.80
2019-05-18T11:38:48.781Z,4.80
2019-05-18T11:41:21.844Z,4.72
2019-05-18T11:43:53.846Z,4.85
2019-05-18T11:46:27.766Z,4.08
2019-05-18T11:48:59.046Z,4.50
2019-05-18T11:51:32.885Z,5.53
2019-05-18T11:54:04.092Z,3.92
2019-05-18T11:56:35.491Z,5.17
2019-05-18T11:59:06.962Z,4.95
2019-05-18T12:01:38.248Z,4.10
2019-05-18T12:04:09.983Z,4.40
2019-05-18T12:06:41.226Z,4.50
2019-05-18T12:09:12.595Z,4.40
2019-05-18T12:11:43.812Z,4.58
2019-05-18T12:14:15.286Z,3.90
2019-05-18T12:16:46.652Z,4.70
2019-05-18T12:19:18.077Z,4.45
2019-05-18T12:21:49.650Z,4.25
2019-05-18T12:24:22.180Z,4.08
2019-05-18T12:26:53.556Z,4.65
2019-05-18T12:29:24.899Z,4.58
2019-05-18T12:31:56.232Z,4.58
2019-05-18T12:34:27.504Z,4.72
2019-05-18T12:36:58.881Z,4.25
2019-05-18T12:39:30.321Z,5.22
2019-05-18T12:42:03.334Z,4.67
2019-05-18T12:44:34.758Z,4.42
2019-05-18T12:47:06.101Z,5.17
2019-05-18T12:49:37.906Z,4.78
2019-05-18T12:52:12.426Z,4.62
2019-05-18T12:54:46.783Z,4.25
2019-05-18T12:57:18.422Z,4.70
2019-05-18T12:59:49.919Z,4.85
2019-05-18T13:02:21.092Z,4.50
2019-05-18T13:04:53.229Z,4.35
2019-05-18T13:07:25.005Z,3.95
2019-05-18T13:09:57.650Z,4.30
2019-05-18T13:12:29.044Z,4.70
2019-05-18T13:15:00.416Z,4.47
2019-05-18T13:17:31.911Z,4.40
2019-05-18T13:20:05.464Z,4.47
2019-05-18T13:22:36.914Z,4.15
2019-05-18T13:25:08.379Z,4.20
2019-05-18T13:27:40.152Z,3.50
2019-05-18T13:30:13.384Z,4.00
2019-05-18T13:32:44.685Z,4.65
2019-05-18T13:35:17.623Z,4.20
2019-05-18T13:37:48.949Z,5.70
2019-05-18T13:40:20.377Z,4.10
2019-05-18T13:42:51.790Z,5.03
2019-05-18T13:45:22.983Z,4.33
2019-05-18T13:47:56.214Z,6.28
2019-05-18T13:50:27.732Z,4.03
2019-05-18T13:52:59.352Z,4.10
2019-05-18T13:55:31.752Z,17.50
2019-05-18T13:58:03.200Z,4.55
2019-05-18T14:00:35.270Z,4.47
2019-05-18T14:03:06.675Z,4.03
2019-05-18T14:05:38.058Z,3.83
2019-05-18T14:08:15.318Z,4.35
2019-05-18T14:10:42.781Z,4.30
2019-05-18T14:13:14.062Z,3.90
2019-05-18T14:15:45.374Z,3.37
2019-05-18T14:18:16.881Z,4.45
2019-05-18T14:20:49.203Z,4.17
2019-05-18T14:23:21.703Z,4.55
2019-05-18T14:25:53.045Z,3.92
2019-05-18T14:28:24.571Z,4.00
2019-05-18T14:30:56.393Z,3.77
2019-05-18T14:33:29.177Z,3.77
2019-05-18T14:36:00.618Z,6.65
2019-05-18T14:38:31.754Z,4.20
2019-05-18T14:41:02.894Z,4.83
2019-05-18T14:43:34.094Z,5.47
2019-05-18T14:46:05.684Z,5.72
2019-05-18T14:48:37.313Z,5.37
2019-05-18T14:51:08.913Z,4.80
2019-05-18T14:53:39.999Z,4.70
2019-05-18T14:56:13.352Z,4.83
2019-05-18T14:58:44.527Z,5.80
2019-05-18T15:01:15.989Z,4.17
2019-05-18T15:03:48.384Z,4.05
2019-05-18T15:06:19.973Z,8.10
2019-05-18T15:08:51.274Z,5.75
2019-05-18T15:11:22.572Z,4.87
2019-05-18T15:13:53.900Z,4.40
2019-05-18T15:16:25.303Z,5.05
2019-05-18T15:18:59.520Z,4.83
2019-05-18T15:21:32.450Z,4.17
2019-05-18T15:24:03.696Z,4.33
2019-05-18T15:26:36.165Z,4.87
2019-05-18T15:29:07.479Z,6.03
2019-05-18T15:31:38.974Z,5.28
2019-05-18T15:34:10.877Z,7.37
2019-05-18T15:36:43.995Z,6.45
2019-05-18T15:39:18.120Z,4.47
2019-05-18T15:41:49.588Z,5.20
2019-05-18T15:44:20.914Z,21.27
2019-05-18T15:46:52.248Z,5.42
2019-05-18T15:49:23.576Z,5.67
2019-05-18T15:51:54.912Z,9.43
2019-05-18T15:54:26.488Z,9.80
2019-05-18T15:56:58.549Z,5.87
2019-05-18T15:59:29.911Z,9.33
2019-05-18T16:02:01.163Z,6.00
2019-05-18T16:04:32.869Z,4.40
2019-05-18T16:07:04.364Z,4.28
2019-05-18T16:09:36.196Z,6.08
2019-05-18T16:12:07.719Z,7.10
2019-05-18T16:14:38.963Z,7.20
2019-05-18T16:17:10.600Z,7.65
2019-05-18T16:19:43.543Z,6.72
2019-05-18T16:22:15.004Z,6.97
2019-05-18T16:24:46.378Z,7.10
2019-05-18T16:27:19.749Z,6.62
2019-05-18T16:29:50.911Z,7.08
2019-05-18T16:32:22.446Z,7.03
2019-05-18T16:34:54.905Z,12.18
2019-05-18T16:37:28.454Z,7.67
2019-05-18T16:40:00.175Z,6.97
2019-05-18T16:42:31.594Z,6.67
2019-05-18T16:45:03.035Z,5.72
2019-05-18T16:47:34.600Z,5.85
2019-05-18T16:50:06.953Z,5.85
2019-05-18T16:52:38.483Z,5.55
2019-05-18T16:55:11.171Z,4.62
2019-05-18T16:57:42.457Z,6.53
2019-05-18T17:00:16.214Z,5.55
2019-05-18T17:02:46.936Z,4.90
2019-05-18T17:05:18.484Z,5.37
2019-05-18T17:07:51.030Z,5.08
2019-05-18T17:10:23.547Z,5.45
2019-05-18T17:12:56.562Z,8.88
2019-05-18T17:15:28.459Z,8.05
2019-05-18T17:17:59.746Z,4.87
2019-05-18T17:20:31.067Z,5.70
2019-05-18T17:23:04.503Z,5.33
2019-05-18T17:25:36.051Z,7.20
2019-05-18T17:28:07.933Z,8.73
2019-05-18T17:30:42.855Z,5.72
2019-05-18T17:33:14.537Z,7.22
2019-05-18T17:35:59.736Z,7.10
2019-05-18T17:38:24.127Z,7.87
2019-05-18T17:40:56.579Z,6.33
2019-05-18T17:43:29.061Z,7.80
2019-05-18T17:46:03.144Z,8.55
2019-05-18T17:48:34.809Z,8.00
2019-05-18T17:51:07.625Z,8.90
2019-05-18T17:53:40.733Z,9.33
2019-05-18T17:56:13.673Z,6.12
2019-05-18T17:58:48.840Z,4.97
2019-05-18T18:04:04.306Z,5.03
2019-05-18T18:06:35.866Z,4.67
2019-05-18T18:09:09.293Z,4.97
2019-05-18T18:11:42.979Z,5.42
2019-05-18T18:14:14.386Z,5.67
2019-05-18T18:16:46.352Z,6.45
2019-05-18T18:19:34.529Z,8.33
2019-05-18T18:22:07.359Z,8.23
2019-05-18T18:24:42.689Z,8.53
2019-05-18T18:27:24.758Z,9.25
2019-05-18T18:29:52.075Z,10.82
2019-05-18T18:32:25.173Z,9.05
2019-05-18T18:34:58.085Z,8.10
2019-05-18T18:37:29.385Z,7.55
2019-05-18T18:40:07.400Z,6.28
2019-05-18T18:42:38.937Z,6.83
2019-05-18T18:45:10.425Z,7.40
2019-05-18T18:47:41.837Z,8.10
2019-05-18T18:50:13.129Z,7.87
2019-05-18T18:52:46.402Z,8.23
2019-05-18T18:55:18.005Z,6.75
2019-05-18T18:57:49.496Z,7.58
2019-05-18T19:00:20.827Z,7.58
2019-05-18T19:02:53.513Z,6.72
2019-05-18T19:05:26.026Z,7.97
2019-05-18T19:07:58.198Z,7.30
2019-05-18T19:10:30.156Z,7.03
2019-05-18T19:13:02.465Z,7.78
2019-05-18T19:15:34.630Z,6.97
2019-05-18T19:18:12.945Z,8.35
2019-05-18T19:20:46.396Z,8.13
2019-05-18T19:23:21.724Z,17.02
2019-05-18T19:25:54.491Z,15.58
2019-05-18T19:28:36.118Z,7.53
2019-05-18T19:31:10.070Z,11.50
2019-05-18T19:33:41.894Z,9.38
2019-05-18T19:36:13.904Z,10.65
2019-05-18T19:38:46.257Z,13.75
2019-05-18T19:41:17.720Z,15.38
2019-05-18T19:43:50.500Z,14.60
2019-05-18T19:46:22.007Z,12.80
2019-05-18T19:48:53.676Z,11.08
2019-05-18T19:51:27.431Z,9.15
2019-05-18T19:54:00.905Z,8.65
2019-05-18T19:56:42.762Z,9.85
2019-05-18T19:59:13.151Z,8.98
2019-05-18T20:01:45.251Z,9.28
2019-05-18T20:04:16.554Z,13.53
2019-05-18T20:06:55.079Z,16.82
2019-05-18T20:09:26.755Z,11.93
2019-05-18T20:12:02.173Z,19.12
2019-05-18T20:14:33.452Z,15.40
2019-05-18T20:17:04.877Z,10.85
2019-05-18T20:19:39.118Z,11.25
2019-05-18T20:22:09.250Z,16.42
2019-05-18T20:24:44.135Z,12.70
2019-05-18T20:27:16.912Z,9.83
2019-05-18T20:29:48.148Z,9.48
2019-05-18T20:32:19.528Z,9.73
2019-05-18T20:34:51.227Z,9.10
2019-05-18T20:37:22.520Z,8.00
2019-05-18T20:39:53.917Z,7.97
2019-05-18T20:42:25.466Z,8.15
2019-05-18T20:44:58.008Z,9.70
2019-05-18T20:47:32.647Z,11.03
2019-05-18T20:50:05.550Z,11.43
2019-05-18T20:52:36.754Z,11.08
2019-05-18T20:55:08.167Z,9.50
2019-05-18T20:57:39.485Z,11.85
2019-05-18T21:00:10.946Z,10.85
2019-05-18T21:02:44.446Z,19.20
2019-05-18T21:05:15.845Z,19.42
2019-05-18T21:07:47.501Z,12.78
2019-05-18T21:10:18.888Z,11.60
2019-05-18T21:12:52.642Z,11.35
2019-05-18T21:15:26.867Z,10.63
2019-05-18T21:17:58.340Z,8.50
2019-05-18T21:20:29.812Z,8.10
2019-05-18T21:23:01.299Z,7.53
2019-05-18T21:25:33.569Z,8.63
2019-05-18T21:28:07.755Z,8.03
2019-05-18T21:30:43.883Z,8.30
2019-05-18T21:33:15.479Z,8.40
2019-05-18T21:35:47.442Z,10.03
2019-05-18T21:38:23.834Z,9.00
2019-05-18T21:40:55.422Z,11.63
2019-05-18T21:43:27.040Z,10.30
2019-05-18T21:46:00.019Z,7.97
2019-05-18T21:48:31.593Z,9.15
2019-05-18T21:51:03.064Z,9.95
2019-05-18T21:53:34.434Z,9.93
2019-05-18T21:56:13.242Z,7.87
2019-05-18T21:58:45.010Z,7.80
2019-05-18T22:01:16.351Z,8.83
2019-05-18T22:03:48.408Z,9.88
2019-05-18T22:06:20.122Z,9.78
2019-05-18T22:08:52.754Z,10.80
2019-05-18T22:11:24.390Z,11.97
2019-05-18T22:13:55.737Z,10.88
2019-05-18T22:16:27.084Z,8.28
2019-05-18T22:18:58.636Z,7.15
2019-05-18T22:21:29.969Z,7.58
2019-05-18T22:24:01.376Z,6.20
2019-05-18T22:26:32.791Z,6.08
2019-05-18T22:29:05.175Z,6.55
2019-05-18T22:31:38.104Z,6.17
2019-05-18T22:34:11.034Z,6.85
2019-05-18T22:36:42.487Z,8.45
2019-05-18T22:39:13.985Z,9.88
2019-05-18T22:41:45.307Z,9.83
2019-05-18T22:44:16.790Z,8.55
2019-05-18T22:46:48.082Z,9.73
2019-05-18T22:49:19.322Z,9.30
2019-05-18T22:51:50.770Z,9.53
2019-05-18T22:54:22.323Z,10.28
2019-05-18T22:56:53.578Z,10.80
2019-05-18T22:59:25.039Z,14.78
2019-05-18T23:01:56.693Z,14.03
2019-05-18T23:04:28.217Z,14.80
2019-05-18T23:07:00.227Z,13.68
2019-05-18T23:09:31.764Z,12.88
2019-05-18T23:12:05.300Z,8.18
2019-05-18T23:14:37.810Z,8.30
2019-05-18T23:17:09.193Z,7.35
2019-05-18T23:19:40.553Z,6.85
2019-05-18T23:22:14.568Z,7.00
2019-05-18T23:24:46.091Z,7.35
2019-05-18T23:27:17.493Z,14.78
2019-05-18T23:29:48.870Z,7.40
2019-05-18T23:32:20.489Z,9.98
2019-05-18T23:34:52.103Z,11.22
2019-05-18T23:37:23.462Z,13.88
2019-05-18T23:39:56.170Z,12.33
2019-05-18T23:42:27.615Z,13.32
2019-05-18T23:44:58.947Z,14.07
2019-05-18T23:47:30.294Z,13.88
2019-05-18T23:50:01.998Z,11.03
2019-05-18T23:52:33.299Z,7.60
2019-05-18T23:55:05.961Z,6.58
2019-05-18T23:57:37.357Z,5.12
